Time;durP1;ratioP1;P1;durP2;ratioP2;P2;SDS_P1;SDS_P2;PMS_P1;PMS_P2;Temp;Humidity;BMP_temperature;BMP_pressure;BME280_temperature;BME280_humidity;BME280_pressure;Samples;Min_cycle;Max_cycle;Signal;HPM_P1;HPM_P2
2021/06/18 00:00:55;;;;;;;12.35;11.10;;;;;;;;;;2064202;28;20178;-55
2021/06/18 00:01:55;;;;;;;12.75;11.48;;;;;;;;;;2063811;28;20178;-56
2021/06/18 00:02:56;;;;;;;12.27;11.07;;;;;;;;;;2064864;28;20177;-55
2021/06/18 00:03:56;;;;;;;11.90;10.77;;;;;;;;;;2065642;28;20180;-58
2021/06/18 00:04:56;;;;;;;11.80;10.68;;;;;;;;;;2065372;28;20678;-56
2021/06/18 00:05:57;;;;;;;12.65;11.25;;;;;;;;;;2060738;28;20194;-54
2021/06/18 00:06:57;;;;;;;12.63;11.27;;;;;;;;;;2062145;28;20182;-54
2021/06/18 00:07:57;;;;;;;14.32;11.25;;;;;;;;;;2065187;28;20622;-56
2021/06/18 00:08:57;;;;;;;13.93;12.35;;;;;;;;;;2064240;28;20169;-56
2021/06/18 00:09:58;;;;;;;13.73;10.82;;;;;;;;;;2064906;28;20240;-56
2021/06/18 00:10:58;;;;;;;12.45;11.23;;;;;;;;;;2060026;28;20526;-51
2021/06/18 00:11:58;;;;;;;12.00;10.80;;;;;;;;;;2063743;28;20220;-55
2021/06/18 00:13:01;;;;;;;17.15;11.73;;;;;;;;;;2051163;28;20237;-58
2021/06/18 00:14:02;;;;;;;12.50;11.27;;;;;;;;;;2064791;28;20657;-58
2021/06/18 00:15:03;;;;;;;12.77;11.55;;;;;;;;;;2064752;28;20240;-55
2021/06/18 00:16:03;;;;;;;12.50;11.45;;;;;;;;;;2060509;28;20221;-60
2021/06/18 00:17:03;;;;;;;12.98;11.68;;;;;;;;;;2066744;28;20196;-59
2021/06/18 00:18:04;;;;;;;12.73;11.40;;;;;;;;;;2067435;28;20169;-59
2021/06/18 00:19:04;;;;;;;13.32;12.02;;;;;;;;;;2067239;28;20717;-59
2021/06/18 00:20:05;;;;;;;12.43;11.23;;;;;;;;;;2069616;28;20189;-60
2021/06/18 00:21:05;;;;;;;15.38;12.85;;;;;;;;;;2068669;28;20173;-59
2021/06/18 00:22:05;;;;;;;11.60;10.50;;;;;;;;;;2065681;28;20245;-59
2021/06/18 00:23:06;;;;;;;16.25;12.23;;;;;;;;;;2061041;28;20208;-59
2021/06/18 00:24:06;;;;;;;12.85;11.00;;;;;;;;;;2060070;28;20277;-59
2021/06/18 00:25:07;;;;;;;14.60;11.50;;;;;;;;;;2058107;28;20178;-56
2021/06/18 00:26:07;;;;;;;14.73;12.15;;;;;;;;;;2057808;28;20202;-59
2021/06/18 00:27:08;;;;;;;13.65;12.45;;;;;;;;;;2057386;28;20210;-54
2021/06/18 00:28:08;;;;;;;12.10;10.90;;;;;;;;;;2057274;28;20257;-57
2021/06/18 00:29:08;;;;;;;12.68;11.30;;;;;;;;;;2058035;28;20265;-57
2021/06/18 00:30:11;;;;;;;15.05;11.15;;;;;;;;;;2058171;28;20553;-59
2021/06/18 00:31:12;;;;;;;11.77;10.73;;;;;;;;;;2057837;28;20170;-60
2021/06/18 00:32:12;;;;;;;13.27;12.00;;;;;;;;;;2062101;28;20200;-57
2021/06/18 00:33:12;;;;;;;12.48;11.15;;;;;;;;;;2066037;28;20181;-60
2021/06/18 00:34:12;;;;;;;13.45;12.15;;;;;;;;;;2065654;28;20315;-57
2021/06/18 00:35:13;;;;;;;13.05;11.60;;;;;;;;;;2065783;28;20180;-59
2021/06/18 00:36:13;;;;;;;11.30;10.10;;;;;;;;;;2065135;28;20213;-57
2021/06/18 00:37:13;;;;;;;14.30;11.63;;;;;;;;;;2065278;28;20573;-56
2021/06/18 00:38:14;;;;;;;12.40;11.20;;;;;;;;;;2065820;28;20176;-57
2021/06/18 00:39:14;;;;;;;12.70;11.38;;;;;;;;;;2065068;28;20216;-52
2021/06/18 00:40:14;;;;;;;12.70;11.38;;;;;;;;;;2065113;28;20280;-59
2021/06/18 00:41:15;;;;;;;13.80;12.20;;;;;;;;;;2065237;28;20169;-59
2021/06/18 00:42:15;;;;;;;12.40;10.93;;;;;;;;;;2060942;28;20176;-57
2021/06/18 00:43:15;;;;;;;13.60;11.73;;;;;;;;;;2057477;28;20178;-59
2021/06/18 00:44:16;;;;;;;16.00;11.95;;;;;;;;;;2057341;28;20162;-55
2021/06/18 00:45:16;;;;;;;11.65;10.55;;;;;;;;;;2056830;28;20174;-56
2021/06/18 00:46:16;;;;;;;11.65;10.55;;;;;;;;;;2064727;28;20626;-58
2021/06/18 00:47:20;;;;;;;12.52;11.25;;;;;;;;;;2063557;28;20217;-57
2021/06/18 00:48:22;;;;;;;11.90;10.60;;;;;;;;;;2063397;28;20231;-56
2021/06/18 00:49:23;;;;;;;13.75;12.25;;;;;;;;;;2060717;28;20257;-57
2021/06/18 00:50:23;;;;;;;14.15;10.77;;;;;;;;;;2062953;28;20540;-58
2021/06/18 00:51:24;;;;;;;11.82;10.73;;;;;;;;;;2061819;28;20220;-59
2021/06/18 00:52:24;;;;;;;12.70;11.43;;;;;;;;;;2063578;28;20186;-58
2021/06/18 00:53:25;;;;;;;11.82;10.63;;;;;;;;;;2065024;28;20174;-57
2021/06/18 00:54:28;;;;;;;12.55;11.38;;;;;;;;;;2061608;28;20238;-58
2021/06/18 00:55:30;;;;;;;14.60;11.10;;;;;;;;;;2063156;28;20517;-57
2021/06/18 00:56:30;;;;;;;14.10;11.55;;;;;;;;;;2065082;28;20181;-55
2021/06/18 00:57:31;;;;;;;16.27;12.20;;;;;;;;;;2060284;28;20583;-57
2021/06/18 00:58:31;;;;;;;12.32;11.23;;;;;;;;;;2063405;28;20556;-56
2021/06/18 00:59:31;;;;;;;13.27;11.85;;;;;;;;;;2064625;28;20194;-58
2021/06/18 01:00:32;;;;;;;13.77;11.82;;;;;;;;;;2060803;28;20202;-54
2021/06/18 01:01:32;;;;;;;13.10;11.25;;;;;;;;;;2063324;28;20697;-57
2021/06/18 01:02:32;;;;;;;16.67;12.13;;;;;;;;;;2061878;28;20196;-55
2021/06/18 01:03:32;;;;;;;13.65;10.82;;;;;;;;;;2062840;28;20178;-59
2021/06/18 01:04:33;;;;;;;12.00;10.80;;;;;;;;;;2064789;28;20216;-58
2021/06/18 01:05:33;;;;;;;12.40;11.20;;;;;;;;;;2064618;28;20241;-57
2021/06/18 01:06:35;;;;;;;11.88;10.73;;;;;;;;;;2064835;28;20209;-60
2021/06/18 01:07:50;;;;;;;12.27;11.15;;;;;;;;;;2065585;28;20169;-55
2021/06/18 01:08:56;;;;;;;12.93;11.63;;;;;;;;;;2057433;28;20619;-57
2021/06/18 01:10:04;;;;;;;13.00;10.80;;;;;;;;;;2056633;28;20193;-54
2021/06/18 01:11:13;;;;;;;12.38;11.18;;;;;;;;;;2056962;28;20186;-57
2021/06/18 01:12:18;;;;;;;11.38;10.27;;;;;;;;;;2060607;28;20252;-58
2021/06/18 01:13:28;;;;;;;12.35;11.25;;;;;;;;;;2065446;28;20664;-58
2021/06/18 01:14:32;;;;;;;12.82;11.55;;;;;;;;;;2065314;28;20178;-58
2021/06/18 01:15:39;;;;;;;13.18;11.65;;;;;;;;;;2065354;28;20157;-57
2021/06/18 01:16:45;;;;;;;13.23;11.10;;;;;;;;;;2065597;28;20256;-54
2021/06/18 01:18:05;;;;;;;12.35;11.00;;;;;;;;;;2065268;28;20212;-56
2021/06/18 01:19:11;;;;;;;15.10;12.02;;;;;;;;;;2072442;28;20172;-61
2021/06/18 01:20:18;;;;;;;13.50;12.10;;;;;;;;;;2071943;28;20199;-57
2021/06/18 01:21:25;;;;;;;12.23;11.07;;;;;;;;;;2064993;28;20172;-57
2021/06/18 01:22:25;;;;;;;12.45;11.13;;;;;;;;;;2065582;28;20258;-57
2021/06/18 01:23:35;;;;;;;13.73;11.32;;;;;;;;;;2065329;28;20265;-58
2021/06/18 01:24:57;;;;;;;12.43;11.32;;;;;;;;;;2065214;28;20197;-56
2021/06/18 01:26:06;;;;;;;12.38;11.10;;;;;;;;;;2065220;28;20224;-59
2021/06/18 01:27:25;;;;;;;14.50;11.57;;;;;;;;;;2065321;28;20174;-58
2021/06/18 01:28:31;;;;;;;13.30;11.82;;;;;;;;;;2065197;28;20204;-58
2021/06/18 01:29:35;;;;;;;14.05;12.63;;;;;;;;;;2063196;28;20695;-59
2021/06/18 01:30:36;;;;;;;13.88;12.57;;;;;;;;;;2064511;28;20252;-57
2021/06/18 01:31:37;;;;;;;15.68;14.02;;;;;;;;;;2064896;28;20573;-55
2021/06/18 01:32:40;;;;;;;14.35;12.95;;;;;;;;;;2064377;28;20240;-56
2021/06/18 01:33:42;;;;;;;12.48;11.38;;;;;;;;;;2064555;28;20256;-55
2021/06/18 01:34:43;;;;;;;14.40;13.00;;;;;;;;;;2065117;28;20166;-57
2021/06/18 01:35:48;;;;;;;15.30;13.57;;;;;;;;;;2065340;28;20200;-56
2021/06/18 01:36:51;;;;;;;14.82;13.32;;;;;;;;;;2065049;28;20201;-54
2021/06/18 01:37:53;;;;;;;16.35;13.57;;;;;;;;;;2065163;28;20239;-56
2021/06/18 01:38:54;;;;;;;15.32;12.60;;;;;;;;;;2062474;28;20588;-57
2021/06/18 01:39:56;;;;;;;13.50;12.20;;;;;;;;;;2056974;28;20725;-58
2021/06/18 01:40:58;;;;;;;14.13;12.68;;;;;;;;;;2057068;28;20303;-60
2021/06/18 01:42:00;;;;;;;13.35;12.02;;;;;;;;;;2056791;28;20245;-55
2021/06/18 01:43:02;;;;;;;13.90;12.52;;;;;;;;;;2056884;28;20174;-59
2021/06/18 01:44:03;;;;;;;13.25;11.80;;;;;;;;;;2056609;28;20177;-59
2021/06/18 01:45:06;;;;;;;14.20;12.85;;;;;;;;;;2055897;28;20197;-58
2021/06/18 01:46:07;;;;;;;14.55;13.27;;;;;;;;;;2056467;28;20198;-54
2021/06/18 01:47:09;;;;;;;15.13;13.73;;;;;;;;;;2056312;28;20623;-57
2021/06/18 01:48:09;;;;;;;14.10;12.50;;;;;;;;;;2056520;28;20224;-60
2021/06/18 01:49:10;;;;;;;15.82;12.57;;;;;;;;;;2057904;28;20221;-58
2021/06/18 01:50:19;;;;;;;14.95;13.40;;;;;;;;;;2063457;28;20230;-61
2021/06/18 01:51:20;;;;;;;12.75;11.60;;;;;;;;;;2062138;28;20621;-57
2021/06/18 01:52:22;;;;;;;15.18;13.25;;;;;;;;;;2064227;28;20596;-57
2021/06/18 01:53:24;;;;;;;14.98;13.57;;;;;;;;;;2063829;28;20181;-57
2021/06/18 01:54:27;;;;;;;14.88;13.38;;;;;;;;;;2064258;28;20169;-58
2021/06/18 01:55:29;;;;;;;15.82;12.88;;;;;;;;;;2062562;28;20192;-60
2021/06/18 01:56:30;;;;;;;14.27;12.90;;;;;;;;;;2064345;28;20717;-56
2021/06/18 01:57:32;;;;;;;14.98;13.45;;;;;;;;;;2063488;28;20677;-58
2021/06/18 01:58:34;;;;;;;14.38;12.95;;;;;;;;;;2063682;28;20225;-58
2021/06/18 01:59:35;;;;;;;15.48;13.88;;;;;;;;;;2062820;28;20204;-58
2021/06/18 02:00:40;;;;;;;15.98;14.02;;;;;;;;;;2063213;28;20172;-58
2021/06/18 02:01:42;;;;;;;14.43;13.02;;;;;;;;;;2064030;28;20728;-58
2021/06/18 02:02:43;;;;;;;16.13;14.23;;;;;;;;;;2063272;28;20642;-58
2021/06/18 02:03:44;;;;;;;16.45;14.73;;;;;;;;;;2063412;28;20221;-58
2021/06/18 02:04:45;;;;;;;16.98;15.27;;;;;;;;;;2063525;28;20184;-59
2021/06/18 02:05:45;;;;;;;16.17;14.63;;;;;;;;;;2064198;28;20337;-59
2021/06/18 02:06:46;;;;;;;15.88;14.48;;;;;;;;;;2065004;28;20161;-59
2021/06/18 02:07:48;;;;;;;15.95;14.25;;;;;;;;;;2064208;28;20177;-60
2021/06/18 02:08:50;;;;;;;15.82;14.30;;;;;;;;;;2064630;28;20232;-59
2021/06/18 02:09:50;;;;;;;14.07;12.88;;;;;;;;;;2064094;28;20172;-60
2021/06/18 02:10:51;;;;;;;16.88;15.18;;;;;;;;;;2063661;28;20232;-58
2021/06/18 02:11:53;;;;;;;15.93;14.02;;;;;;;;;;2057768;28;20181;-59
2021/06/18 02:12:54;;;;;;;16.23;14.55;;;;;;;;;;2066258;28;20645;-57
2021/06/18 02:13:56;;;;;;;15.63;14.13;;;;;;;;;;2062000;28;20624;-60
2021/06/18 02:14:57;;;;;;;17.00;15.20;;;;;;;;;;2066112;28;20658;-59
2021/06/18 02:15:58;;;;;;;17.17;15.38;;;;;;;;;;2066744;28;20190;-58
2021/06/18 02:17:00;;;;;;;16.40;14.65;;;;;;;;;;2066943;28;20273;-59
2021/06/18 02:18:01;;;;;;;18.05;15.45;;;;;;;;;;2065199;28;20305;-58
2021/06/18 02:19:02;;;;;;;19.38;15.15;;;;;;;;;;2066132;28;20208;-54
2021/06/18 02:20:05;;;;;;;16.60;14.93;;;;;;;;;;2065685;28;20272;-56
2021/06/18 02:21:06;;;;;;;18.73;15.75;;;;;;;;;;2065685;28;20265;-59
2021/06/18 02:22:07;;;;;;;17.02;14.68;;;;;;;;;;2065835;28;20177;-53
2021/06/18 02:23:08;;;;;;;18.05;16.25;;;;;;;;;;2066153;28;20597;-57
2021/06/18 02:24:09;;;;;;;19.05;16.77;;;;;;;;;;2066700;28;20174;-53
2021/06/18 02:25:09;;;;;;;16.58;14.93;;;;;;;;;;2064735;28;20196;-59
2021/06/18 02:26:10;;;;;;;15.55;14.05;;;;;;;;;;2061621;28;20203;-53
2021/06/18 02:27:12;;;;;;;18.80;16.27;;;;;;;;;;2066559;28;20177;-53
2021/06/18 02:28:13;;;;;;;19.33;16.88;;;;;;;;;;2066648;28;20173;-53
2021/06/18 02:29:14;;;;;;;17.90;15.68;;;;;;;;;;2066396;28;20201;-59
2021/06/18 02:30:15;;;;;;;17.90;15.85;;;;;;;;;;2065378;28;20194;-57
2021/06/18 02:31:15;;;;;;;19.30;17.25;;;;;;;;;;2065970;28;20204;-57
2021/06/18 02:32:16;;;;;;;18.40;15.68;;;;;;;;;;2066509;28;20248;-55
2021/06/18 02:33:16;;;;;;;17.88;15.93;;;;;;;;;;2066285;28;20658;-54
2021/06/18 02:34:16;;;;;;;17.50;15.70;;;;;;;;;;2066415;28;20239;-57
2021/06/18 02:35:17;;;;;;;17.88;16.08;;;;;;;;;;2063626;28;20185;-57
2021/06/18 02:36:17;;;;;;;19.27;17.38;;;;;;;;;;2062194;28;20189;-53
2021/06/18 02:37:17;;;;;;;17.85;16.13;;;;;;;;;;2064810;28;20220;-56
2021/06/18 02:38:18;;;;;;;17.23;15.52;;;;;;;;;;2066683;28;20174;-58
2021/06/18 02:39:18;;;;;;;20.15;18.08;;;;;;;;;;2066520;28;20685;-59
2021/06/18 02:40:18;;;;;;;20.02;17.95;;;;;;;;;;2062930;28;20264;-59
2021/06/18 02:41:18;;;;;;;20.40;18.45;;;;;;;;;;2061894;28;20193;-58
2021/06/18 02:42:19;;;;;;;18.95;17.00;;;;;;;;;;2064926;28;20212;-55
2021/06/18 02:43:19;;;;;;;19.98;17.23;;;;;;;;;;2065713;28;20220;-56
2021/06/18 02:44:19;;;;;;;18.63;16.75;;;;;;;;;;2066101;28;20556;-59
2021/06/18 02:45:20;;;;;;;18.77;16.98;;;;;;;;;;2065615;28;20178;-55
2021/06/18 02:46:31;;;;;;;19.42;17.50;;;;;;;;;;2062368;28;20182;-58
2021/06/18 02:47:49;;;;;;;18.60;16.50;;;;;;;;;;2064641;28;20170;-57
2021/06/18 02:48:51;;;;;;;18.67;16.77;;;;;;;;;;2059077;28;20535;-58
2021/06/18 02:49:52;;;;;;;20.20;18.30;;;;;;;;;;2065470;28;20212;-56
2021/06/18 02:50:57;;;;;;;22.23;19.92;;;;;;;;;;2065710;28;20165;-59
2021/06/18 02:51:59;;;;;;;20.65;17.88;;;;;;;;;;2064546;28;20228;-58
2021/06/18 02:53:15;;;;;;;19.77;17.85;;;;;;;;;;2060463;28;20162;-58
2021/06/18 02:54:18;;;;;;;20.02;17.90;;;;;;;;;;2065796;28;20673;-60
2021/06/18 02:55:22;;;;;;;21.85;19.67;;;;;;;;;;2065553;28;20162;-58
2021/06/18 02:56:24;;;;;;;22.75;20.30;;;;;;;;;;2066232;28;20530;-57
2021/06/18 02:57:26;;;;;;;20.35;18.52;;;;;;;;;;2063967;28;20189;-57
2021/06/18 02:58:39;;;;;;;21.80;19.50;;;;;;;;;;2062868;28;20181;-54
2021/06/18 02:59:58;;;;;;;21.00;18.85;;;;;;;;;;2066194;28;20200;-54
2021/06/18 03:01:01;;;;;;;20.02;18.02;;;;;;;;;;2060205;28;20256;-55
2021/06/18 03:02:03;;;;;;;19.80;17.77;;;;;;;;;;2066271;28;20181;-58
2021/06/18 03:03:06;;;;;;;21.45;19.25;;;;;;;;;;2066351;28;20188;-52
2021/06/18 03:04:10;;;;;;;22.27;20.08;;;;;;;;;;2066305;28;20169;-56
2021/06/18 03:05:12;;;;;;;22.23;19.83;;;;;;;;;;2065040;28;20201;-55
2021/06/18 03:06:15;;;;;;;21.77;19.85;;;;;;;;;;2064869;28;20756;-57
2021/06/18 03:07:16;;;;;;;21.30;19.20;;;;;;;;;;2066445;28;20177;-57
2021/06/18 03:08:17;;;;;;;20.77;18.48;;;;;;;;;;2066150;28;20280;-57
2021/06/18 03:09:28;;;;;;;22.10;17.95;;;;;;;;;;2066322;28;20213;-56
2021/06/18 03:10:33;;;;;;;23.02;20.77;;;;;;;;;;2066063;28;20210;-55
2021/06/18 03:11:38;;;;;;;22.88;20.48;;;;;;;;;;2065846;28;20158;-59
2021/06/18 03:12:41;;;;;;;21.48;19.35;;;;;;;;;;2066153;28;20182;-57
2021/06/18 03:13:43;;;;;;;22.90;20.50;;;;;;;;;;2065362;28;20181;-56
2021/06/18 03:14:45;;;;;;;22.75;20.33;;;;;;;;;;2066234;28;20202;-58
2021/06/18 03:15:46;;;;;;;23.60;21.15;;;;;;;;;;2066202;28;20189;-57
2021/06/18 03:16:49;;;;;;;20.83;18.67;;;;;;;;;;2066116;28;20186;-59
2021/06/18 03:17:49;;;;;;;23.25;20.77;;;;;;;;;;2066548;28;20174;-57
2021/06/18 03:18:51;;;;;;;22.50;20.15;;;;;;;;;;2066201;28;20664;-56
2021/06/18 03:19:53;;;;;;;22.98;20.45;;;;;;;;;;2066256;28;20166;-57
2021/06/18 03:20:59;;;;;;;22.83;20.52;;;;;;;;;;2066191;28;20231;-55
2021/06/18 03:22:00;;;;;;;24.48;20.88;;;;;;;;;;2065965;28;20594;-57
2021/06/18 03:23:02;;;;;;;21.20;19.20;;;;;;;;;;2073422;28;20694;-57
2021/06/18 03:24:04;;;;;;;24.20;21.67;;;;;;;;;;2073710;28;20189;-53
2021/06/18 03:25:05;;;;;;;22.83;20.27;;;;;;;;;;2066111;28;20166;-56
2021/06/18 03:26:06;;;;;;;21.38;19.08;;;;;;;;;;2066184;28;20242;-56
2021/06/18 03:27:07;;;;;;;21.45;19.25;;;;;;;;;;2066074;28;20186;-53
2021/06/18 03:28:08;;;;;;;26.02;21.98;;;;;;;;;;2066265;28;20170;-54
2021/06/18 03:29:09;;;;;;;21.55;19.45;;;;;;;;;;2073505;28;20594;-57
2021/06/18 03:30:09;;;;;;;22.10;19.98;;;;;;;;;;2071872;28;20181;-52
2021/06/18 03:31:10;;;;;;;22.90;20.50;;;;;;;;;;2062214;28;20739;-57
2021/06/18 03:32:11;;;;;;;22.75;20.45;;;;;;;;;;2061635;28;20556;-54
2021/06/18 03:33:11;;;;;;;22.08;19.92;;;;;;;;;;2064116;28;20173;-56
2021/06/18 03:34:12;;;;;;;22.52;20.25;;;;;;;;;;2061872;28;20205;-59
2021/06/18 03:35:13;;;;;;;22.50;20.20;;;;;;;;;;2063102;28;20201;-57
2021/06/18 03:36:16;;;;;;;22.08;20.00;;;;;;;;;;2061990;28;20169;-55
2021/06/18 03:37:17;;;;;;;23.50;21.15;;;;;;;;;;2065972;28;20232;-55
2021/06/18 03:38:17;;;;;;;21.00;18.85;;;;;;;;;;2065322;28;20170;-52
2021/06/18 03:39:18;;;;;;;22.00;19.65;;;;;;;;;;2066105;28;20264;-56
2021/06/18 03:40:19;;;;;;;21.38;19.27;;;;;;;;;;2065869;28;20647;-57
2021/06/18 03:41:20;;;;;;;19.48;17.73;;;;;;;;;;2065090;28;20619;-57
2021/06/18 03:42:21;;;;;;;19.58;17.60;;;;;;;;;;2065619;28;20178;-54
2021/06/18 03:43:22;;;;;;;21.25;18.70;;;;;;;;;;2066210;28;20170;-57
2021/06/18 03:44:22;;;;;;;19.73;17.92;;;;;;;;;;2066241;28;20196;-60
2021/06/18 03:45:23;;;;;;;20.98;18.98;;;;;;;;;;2057633;28;20170;-58
2021/06/18 03:46:24;;;;;;;22.20;18.33;;;;;;;;;;2057421;28;20178;-57
2021/06/18 03:47:25;;;;;;;21.25;19.05;;;;;;;;;;2064820;28;20170;-57
2021/06/18 03:48:26;;;;;;;20.23;18.30;;;;;;;;;;2065922;28;20176;-56
2021/06/18 03:49:27;;;;;;;21.40;19.00;;;;;;;;;;2066034;28;20184;-57
2021/06/18 03:50:28;;;;;;;19.88;17.83;;;;;;;;;;2065825;28;20208;-56
2021/06/18 03:51:29;;;;;;;23.80;20.42;;;;;;;;;;2065673;28;20174;-59
2021/06/18 03:52:30;;;;;;;24.35;20.00;;;;;;;;;;2065371;28;20626;-54
2021/06/18 03:53:30;;;;;;;21.75;19.52;;;;;;;;;;2057411;28;20225;-57
2021/06/18 03:54:32;;;;;;;21.92;19.38;;;;;;;;;;2065274;28;20186;-54
2021/06/18 03:55:32;;;;;;;20.73;18.73;;;;;;;;;;2065903;28;20154;-57
2021/06/18 03:56:34;;;;;;;21.77;19.77;;;;;;;;;;2065880;28;20192;-57
2021/06/18 03:57:36;;;;;;;22.92;20.40;;;;;;;;;;2066030;28;20735;-54
2021/06/18 03:58:38;;;;;;;21.50;19.60;;;;;;;;;;2065859;28;20177;-56
2021/06/18 03:59:40;;;;;;;20.33;18.27;;;;;;;;;;2059522;28;20293;-56
2021/06/18 04:00:42;;;;;;;21.33;19.25;;;;;;;;;;2063962;28;20674;-57
2021/06/18 04:01:47;;;;;;;21.48;19.23;;;;;;;;;;2064775;28;20220;-56
2021/06/18 04:02:48;;;;;;;21.17;19.00;;;;;;;;;;2057100;28;20178;-58
2021/06/18 04:03:49;;;;;;;21.50;19.23;;;;;;;;;;2064290;28;20203;-54
2021/06/18 04:04:51;;;;;;;21.33;19.23;;;;;;;;;;2065498;28;20701;-52
2021/06/18 04:05:51;;;;;;;21.90;19.67;;;;;;;;;;2065844;28;20212;-56
2021/06/18 04:06:52;;;;;;;21.88;19.60;;;;;;;;;;2065857;28;20166;-56
2021/06/18 04:07:53;;;;;;;19.90;17.80;;;;;;;;;;2065664;28;20185;-55
2021/06/18 04:08:53;;;;;;;20.25;18.25;;;;;;;;;;2065815;28;20251;-56
2021/06/18 04:09:54;;;;;;;19.73;17.83;;;;;;;;;;2065768;28;20201;-58
2021/06/18 04:10:54;;;;;;;24.42;19.98;;;;;;;;;;2065621;28;20572;-53
2021/06/18 04:11:55;;;;;;;21.40;19.30;;;;;;;;;;2065508;28;20197;-51
2021/06/18 04:12:56;;;;;;;22.83;20.40;;;;;;;;;;2065732;28;20519;-55
2021/06/18 04:13:56;;;;;;;21.05;18.02;;;;;;;;;;2065303;28;20184;-56
2021/06/18 04:14:58;;;;;;;23.83;21.40;;;;;;;;;;2065543;28;20784;-56
2021/06/18 04:15:59;;;;;;;21.42;19.48;;;;;;;;;;2065829;28;20174;-55
2021/06/18 04:16:59;;;;;;;21.52;19.63;;;;;;;;;;2065624;28;20520;-57
2021/06/18 04:17:59;;;;;;;23.85;20.17;;;;;;;;;;2065743;28;20196;-55
2021/06/18 04:19:01;;;;;;;22.25;19.63;;;;;;;;;;2065781;28;20189;-53
2021/06/18 04:20:01;;;;;;;21.15;19.05;;;;;;;;;;2061843;28;20244;-53
2021/06/18 04:21:07;;;;;;;19.95;17.88;;;;;;;;;;2057572;28;20240;-59
2021/06/18 04:22:09;;;;;;;21.23;19.15;;;;;;;;;;2057200;28;20565;-57
2021/06/18 04:23:10;;;;;;;21.75;19.55;;;;;;;;;;2059581;28;20281;-56
2021/06/18 04:24:12;;;;;;;21.13;18.92;;;;;;;;;;2060803;28;20201;-58
2021/06/18 04:25:12;;;;;;;22.45;20.35;;;;;;;;;;2065237;28;20176;-58
2021/06/18 04:26:13;;;;;;;21.63;19.42;;;;;;;;;;2065354;28;20666;-59
2021/06/18 04:27:13;;;;;;;22.15;19.98;;;;;;;;;;2063324;28;20240;-57
2021/06/18 04:28:13;;;;;;;21.33;19.05;;;;;;;;;;2057621;28;20194;-56
2021/06/18 04:29:14;;;;;;;19.95;17.92;;;;;;;;;;2062666;28;20597;-53
2021/06/18 04:30:15;;;;;;;24.23;20.00;;;;;;;;;;2068763;28;20197;-58
2021/06/18 04:31:15;;;;;;;21.35;19.35;;;;;;;;;;2068555;28;20258;-56
2021/06/18 04:32:15;;;;;;;21.73;19.42;;;;;;;;;;2067870;28;20174;-57
2021/06/18 04:33:16;;;;;;;21.02;18.98;;;;;;;;;;2073376;28;20159;-58
2021/06/18 04:34:16;;;;;;;20.00;17.95;;;;;;;;;;2075196;28;20201;-60
2021/06/18 04:35:16;;;;;;;21.05;18.83;;;;;;;;;;2070711;28;20256;-61
2021/06/18 04:36:16;;;;;;;21.13;18.83;;;;;;;;;;2072494;28;20169;-60
2021/06/18 04:37:17;;;;;;;19.48;17.60;;;;;;;;;;2071054;28;20300;-59
2021/06/18 04:38:17;;;;;;;21.25;19.15;;;;;;;;;;2067488;28;20190;-60
2021/06/18 04:39:17;;;;;;;21.50;19.40;;;;;;;;;;2069518;28;20213;-60
2021/06/18 04:40:17;;;;;;;20.67;18.60;;;;;;;;;;2068633;28;20320;-57
2021/06/18 04:41:18;;;;;;;21.05;18.92;;;;;;;;;;2063386;28;20166;-55
2021/06/18 04:42:18;;;;;;;22.02;19.73;;;;;;;;;;2064106;28;20180;-59
2021/06/18 04:43:18;;;;;;;20.38;18.45;;;;;;;;;;2063472;28;20596;-54
2021/06/18 04:44:18;;;;;;;23.27;20.98;;;;;;;;;;2064629;28;20654;-50
2021/06/18 04:45:19;;;;;;;20.10;18.25;;;;;;;;;;2063949;28;20189;-57
2021/06/18 04:46:19;;;;;;;20.70;18.58;;;;;;;;;;2064022;28;20239;-58
2021/06/18 04:47:20;;;;;;;21.00;19.00;;;;;;;;;;2064059;28;20655;-57
2021/06/18 04:48:20;;;;;;;19.55;17.67;;;;;;;;;;2063539;28;20227;-59
2021/06/18 04:49:20;;;;;;;20.90;18.63;;;;;;;;;;2064337;28;20660;-58
2021/06/18 04:50:21;;;;;;;23.13;20.65;;;;;;;;;;2061084;28;20194;-58
2021/06/18 04:51:21;;;;;;;22.33;19.98;;;;;;;;;;2064551;28;20554;-58
2021/06/18 04:52:21;;;;;;;20.58;18.50;;;;;;;;;;2064080;28;20205;-58
2021/06/18 04:53:22;;;;;;;22.17;20.05;;;;;;;;;;2064703;28;20654;-57
2021/06/18 04:54:23;;;;;;;21.75;19.42;;;;;;;;;;2063950;28;20704;-57
2021/06/18 04:55:23;;;;;;;22.02;19.73;;;;;;;;;;2064836;28;20716;-56
2021/06/18 04:56:23;;;;;;;20.02;17.95;;;;;;;;;;2065182;28;20248;-58
2021/06/18 04:57:24;;;;;;;21.35;19.38;;;;;;;;;;2059160;28;20221;-58
2021/06/18 04:58:24;;;;;;;19.42;17.38;;;;;;;;;;2062006;28;20217;-59
2021/06/18 04:59:25;;;;;;;19.73;17.77;;;;;;;;;;2064424;28;20170;-58
2021/06/18 05:00:25;;;;;;;21.15;18.95;;;;;;;;;;2063829;28;20288;-56
2021/06/18 05:01:25;;;;;;;23.30;18.67;;;;;;;;;;2064806;28;20186;-59
2021/06/18 05:02:25;;;;;;;20.80;18.70;;;;;;;;;;2064600;28;20213;-59
2021/06/18 05:03:26;;;;;;;23.30;20.77;;;;;;;;;;2065035;28;20708;-59
2021/06/18 05:04:26;;;;;;;21.20;19.00;;;;;;;;;;2064502;28;20174;-57
2021/06/18 05:05:27;;;;;;;30.88;27.70;;;;;;;;;;2063116;28;20173;-59
2021/06/18 05:06:27;;;;;;;22.10;20.05;;;;;;;;;;2064790;28;20634;-56
2021/06/18 05:07:27;;;;;;;21.38;19.13;;;;;;;;;;2062556;28;20189;-58
2021/06/18 05:08:28;;;;;;;27.50;24.63;;;;;;;;;;2063726;28;20764;-59
2021/06/18 05:09:28;;;;;;;24.33;21.80;;;;;;;;;;2062540;28;20165;-60
2021/06/18 05:10:28;;;;;;;21.25;18.02;;;;;;;;;;2054546;28;20253;-58
2021/06/18 05:11:28;;;;;;;19.20;17.30;;;;;;;;;;2053771;28;20174;-58
2021/06/18 05:12:29;;;;;;;19.73;17.52;;;;;;;;;;2063625;28;20653;-54
2021/06/18 05:13:29;;;;;;;20.75;18.70;;;;;;;;;;2064833;28;20184;-57
2021/06/18 05:14:29;;;;;;;20.92;18.98;;;;;;;;;;2064466;28;20185;-60
2021/06/18 05:15:30;;;;;;;18.88;17.02;;;;;;;;;;2064679;28;20166;-58
2021/06/18 05:16:30;;;;;;;17.90;16.25;;;;;;;;;;2064242;28;20166;-61
2021/06/18 05:17:30;;;;;;;19.52;17.58;;;;;;;;;;2064409;28;20176;-60
2021/06/18 05:18:30;;;;;;;20.08;17.98;;;;;;;;;;2061947;28;20229;-59
2021/06/18 05:19:31;;;;;;;19.90;17.77;;;;;;;;;;2062581;28;20170;-59
2021/06/18 05:20:31;;;;;;;18.45;16.60;;;;;;;;;;2061455;28;20189;-56
2021/06/18 05:21:31;;;;;;;18.90;16.92;;;;;;;;;;2062366;28;20181;-60
2021/06/18 05:22:31;;;;;;;20.55;18.40;;;;;;;;;;2064531;28;20551;-53
2021/06/18 05:23:32;;;;;;;20.77;18.80;;;;;;;;;;2063716;28;20655;-59
2021/06/18 05:24:32;;;;;;;21.33;19.25;;;;;;;;;;2058094;28;20202;-57
2021/06/18 05:25:33;;;;;;;26.85;23.20;;;;;;;;;;2057508;28;20309;-59
2021/06/18 05:26:34;;;;;;;22.10;19.80;;;;;;;;;;2064119;28;20185;-58
2021/06/18 05:27:34;;;;;;;21.25;17.85;;;;;;;;;;2064250;28;20158;-58
2021/06/18 05:28:34;;;;;;;21.40;19.33;;;;;;;;;;2063622;28;20264;-58
2021/06/18 05:29:35;;;;;;;20.63;17.92;;;;;;;;;;2063838;28;20272;-57
2021/06/18 05:30:36;;;;;;;19.73;17.83;;;;;;;;;;2064148;28;20169;-54
2021/06/18 05:31:36;;;;;;;18.75;16.85;;;;;;;;;;2063564;28;20220;-58
2021/06/18 05:32:36;;;;;;;18.60;16.92;;;;;;;;;;2061237;28;20185;-56
2021/06/18 05:33:37;;;;;;;17.48;15.77;;;;;;;;;;2063544;28;20249;-55
2021/06/18 05:34:37;;;;;;;19.48;17.48;;;;;;;;;;2057581;28;20194;-58
2021/06/18 05:35:41;;;;;;;19.00;16.95;;;;;;;;;;2063753;28;20169;-59
2021/06/18 05:36:44;;;;;;;19.38;17.38;;;;;;;;;;2058212;28;20193;-58
2021/06/18 05:37:45;;;;;;;18.35;16.45;;;;;;;;;;2057491;28;20632;-54
2021/06/18 05:38:45;;;;;;;17.63;15.25;;;;;;;;;;2064694;28;20174;-58
2021/06/18 05:39:45;;;;;;;16.63;15.13;;;;;;;;;;2063855;28;20193;-57
2021/06/18 05:40:46;;;;;;;17.75;16.05;;;;;;;;;;2072236;23;85619;-63
2021/06/18 05:41:46;;;;;;;15.65;14.35;;;;;;;;;;2064650;28;20717;-63
2021/06/18 05:42:46;;;;;;;16.00;14.60;;;;;;;;;;2070544;28;20664;-62
2021/06/18 05:43:46;;;;;;;16.33;14.73;;;;;;;;;;2063798;28;20169;-63
2021/06/18 05:44:47;;;;;;;16.88;15.10;;;;;;;;;;2071151;28;20280;-63
2021/06/18 05:45:47;;;;;;;17.08;15.35;;;;;;;;;;2064335;28;20197;-63
2021/06/18 05:46:47;;;;;;;15.43;14.02;;;;;;;;;;2064154;28;20184;-64
2021/06/18 05:47:48;;;;;;;18.95;14.52;;;;;;;;;;2068737;28;20188;-63
2021/06/18 05:48:48;;;;;;;19.95;17.88;;;;;;;;;;2071146;28;20165;-64
2021/06/18 05:49:48;;;;;;;16.85;14.13;;;;;;;;;;2063731;28;20177;-63
2021/06/18 05:50:51;;;;;;;15.65;13.88;;;;;;;;;;2070431;28;20219;-63
2021/06/18 05:51:51;;;;;;;15.18;13.70;;;;;;;;;;2065479;28;20166;-64
2021/06/18 05:52:51;;;;;;;14.65;12.88;;;;;;;;;;2071498;28;20204;-63
2021/06/18 05:53:55;;;;;;;16.42;14.80;;;;;;;;;;2079196;28;20171;-63
2021/06/18 05:54:55;;;;;;;20.05;18.05;;;;;;;;;;2072791;28;20202;-63
2021/06/18 05:55:57;;;;;;;14.90;13.38;;;;;;;;;;2067880;28;20208;-62
2021/06/18 05:56:57;;;;;;;13.75;12.45;;;;;;;;;;2070514;28;20187;-63
2021/06/18 05:57:58;;;;;;;17.55;15.93;;;;;;;;;;2071074;28;20200;-64
2021/06/18 05:58:58;;;;;;;14.88;13.38;;;;;;;;;;2069809;28;20185;-63